Time;durP1;ratioP1;P1;durP2;ratioP2;P2;SDS_P1;SDS_P2;PMS_P1;PMS_P2;Temp;Humidity;BMP_temperature;BMP_pressure;BME280_temperature;BME280_humidity;BME280_pressure;Samples;Min_cycle;Max_cycle;Signal;HPM_P1;HPM_P2
2022/08/23 00:01:21;;;;;;;6.60;4.60;;;22.00;52.90;;;;;;5052689;28;20444;-44
2022/08/23 00:03:47;;;;;;;4.90;4.17;;;22.00;52.90;;;;;;5052993;28;20427;-43
2022/08/23 00:06:13;;;;;;;7.03;4.87;;;22.00;53.00;;;;;;5052534;28;20466;-43
2022/08/23 00:08:39;;;;;;;8.90;4.90;;;22.00;52.90;;;;;;5052609;28;20443;-43
2022/08/23 00:11:06;;;;;;;6.60;4.70;;;22.00;53.00;;;;;;5052709;28;20481;-43
2022/08/23 00:13:32;;;;;;;5.57;5.07;;;22.00;53.00;;;;;;5052586;28;20403;-42
2022/08/23 00:15:59;;;;;;;6.03;4.33;;;22.00;53.10;;;;;;5052508;28;20415;-43
2022/08/23 00:18:25;;;;;;;5.63;5.00;;;22.00;53.20;;;;;;5052465;28;20941;-43
2022/08/23 00:20:51;;;;;;;6.97;4.77;;;22.00;53.20;;;;;;5052395;28;20416;-43
2022/08/23 00:23:17;;;;;;;6.00;4.17;;;22.00;53.30;;;;;;5052457;28;20411;-43
2022/08/23 00:25:43;;;;;;;9.03;5.07;;;22.00;53.30;;;;;;5052522;28;20553;-43
2022/08/23 00:28:09;;;;;;;7.83;4.70;;;22.00;53.30;;;;;;5052187;28;20422;-43
2022/08/23 00:30:36;;;;;;;4.43;3.83;;;22.00;53.30;;;;;;5052003;28;20475;-43
2022/08/23 00:33:02;;;;;;;8.73;5.30;;;22.00;53.20;;;;;;5052548;28;20403;-43
2022/08/23 00:35:28;;;;;;;5.50;4.50;;;22.00;53.20;;;;;;5052191;28;20404;-43
2022/08/23 00:37:56;;;;;;;7.00;4.43;;;22.00;53.20;;;;;;5052276;28;20457;-44
2022/08/23 00:40:22;;;;;;;5.57;4.70;;;22.00;53.40;;;;;;5052176;28;20407;-43
2022/08/23 00:49:10;;;;;;;5.27;4.13;;;22.00;53.40;;;;;;5052148;28;20504;-43
2022/08/23 00:51:54;;;;;;;5.77;4.30;;;22.00;53.40;;;;;;5052455;28;20424;-42
2022/08/23 00:54:26;;;;;;;4.93;4.33;;;22.00;53.60;;;;;;5034244;28;20408;-43
2022/08/23 00:56:54;;;;;;;5.70;4.60;;;22.00;53.60;;;;;;5051805;28;20408;-41
2022/08/23 00:59:20;;;;;;;5.17;4.30;;;22.00;53.70;;;;;;5052324;28;20804;-43
2022/08/23 01:01:48;;;;;;;8.60;4.97;;;22.00;53.60;;;;;;5052113;28;20444;-42
2022/08/23 01:04:15;;;;;;;5.30;4.80;;;22.00;53.70;;;;;;5052124;28;20416;-42
2022/08/23 01:07:08;;;;;;;5.30;4.10;;;22.00;53.70;;;;;;5051705;28;20408;-43
2022/08/23 01:09:38;;;;;;;8.03;4.67;;;22.00;53.70;;;;;;5051865;28;20538;-43
2022/08/23 01:12:17;;;;;;;7.60;4.20;;;22.00;53.70;;;;;;5052233;28;20937;-42
2022/08/23 01:15:09;;;;;;;5.30;4.03;;;22.00;53.80;;;;;;5052446;28;20922;-43
2022/08/23 01:17:44;;;;;;;6.17;4.67;;;22.00;53.90;;;;;;5051935;28;20414;-43
2022/08/23 01:20:17;;;;;;;6.43;5.40;;;22.00;53.90;;;;;;5051986;28;20745;-43
2022/08/23 01:22:59;;;;;;;4.70;3.77;;;22.00;54.00;;;;;;5051806;28;20418;-43
2022/08/23 01:25:29;;;;;;;6.73;5.03;;;22.00;54.00;;;;;;5051957;28;20729;-42
2022/08/23 01:27:56;;;;;;;5.80;3.90;;;22.00;53.90;;;;;;5051953;28;20404;-43
2022/08/23 01:30:25;;;;;;;4.75;4.25;;;22.00;53.90;;;;;;5051656;28;20966;-42
2022/08/23 01:32:57;;;;;;;8.50;4.93;;;22.00;54.10;;;;;;5051635;28;20180;-43
2022/08/23 01:35:32;;;;;;;5.70;3.90;;;22.00;53.90;;;;;;5051701;28;20481;-42
2022/08/23 01:37:58;;;;;;;4.20;3.80;;;22.00;53.90;;;;;;5051881;28;20311;-43
2022/08/23 01:40:24;;;;;;;4.53;3.80;;;22.00;53.90;;;;;;5052652;28;20798;-42
2022/08/23 01:42:49;;;;;;;5.30;4.80;;;22.00;54.00;;;;;;5055734;28;20176;-42
2022/08/23 01:45:16;;;;;;;5.77;5.17;;;22.00;53.90;;;;;;5055456;28;20894;-42
2022/08/23 01:47:42;;;;;;;5.70;4.03;;;22.00;53.80;;;;;;5055209;28;20696;-43
2022/08/23 01:50:11;;;;;;;4.97;3.67;;;22.00;54.00;;;;;;5055190;28;20442;-42
2022/08/23 01:52:38;;;;;;;8.00;4.47;;;22.00;54.00;;;;;;5055309;28;20414;-43
2022/08/23 01:55:05;;;;;;;7.63;4.73;;;22.00;53.90;;;;;;5055241;28;20415;-42
2022/08/23 01:57:32;;;;;;;5.00;4.13;;;22.00;53.80;;;;;;5037335;28;20898;-42
2022/08/23 01:59:58;;;;;;;4.67;4.00;;;21.90;53.90;;;;;;5055123;28;20465;-43
2022/08/23 02:02:24;;;;;;;5.10;3.43;;;22.00;53.90;;;;;;5055074;28;20466;-42
2022/08/23 02:04:51;;;;;;;4.90;4.40;;;21.90;54.00;;;;;;5054998;28;20759;-43
2022/08/23 02:07:18;;;;;;;5.50;4.20;;;21.90;54.10;;;;;;5054736;28;20461;-41
2022/08/23 02:09:43;;;;;;;1999.90;999.90;;;21.90;54.10;;;;;;5054808;28;20447;-42
2022/08/23 02:12:10;;;;;;;1999.90;999.90;;;21.90;54.10;;;;;;5054881;28;20415;-43
2022/08/23 02:14:36;;;;;;;1423.93;292.80;;;21.90;54.10;;;;;;5054797;28;20760;-41
2022/08/23 02:17:03;;;;;;;748.87;198.37;;;21.90;54.20;;;;;;5054746;28;20509;-42
2022/08/23 02:19:30;;;;;;;66.13;9.23;;;21.90;54.20;;;;;;5054818;28;20490;-43
2022/08/23 02:21:56;;;;;;;11.70;6.13;;;21.80;54.10;;;;;;5055058;28;20420;-42
2022/08/23 02:24:23;;;;;;;5.50;4.23;;;21.80;54.10;;;;;;5055012;28;20412;-42
2022/08/23 02:26:52;;;;;;;6.97;4.97;;;21.80;54.20;;;;;;5054347;28;20181;-42
2022/08/23 02:29:20;;;;;;;6.10;4.63;;;21.80;54.10;;;;;;5054543;28;20586;-42
2022/08/23 02:31:46;;;;;;;5.10;4.60;;;21.90;54.20;;;;;;5054699;28;20431;-41
2022/08/23 02:34:14;;;;;;;7.30;4.87;;;21.90;54.30;;;;;;5054503;28;20494;-42
2022/08/23 02:36:41;;;;;;;7.60;5.30;;;21.80;54.10;;;;;;5054267;28;20478;-41
2022/08/23 02:39:07;;;;;;;10.50;4.90;;;21.90;54.20;;;;;;5054438;28;20767;-42
2022/08/23 02:41:35;;;;;;;6.07;5.47;;;21.90;54.10;;;;;;5054766;28;20485;-42
2022/08/23 02:44:01;;;;;;;5.77;5.20;;;21.90;54.20;;;;;;5054704;28;20771;-43
2022/08/23 02:46:27;;;;;;;8.40;5.00;;;21.80;54.20;;;;;;5036402;28;20466;-42
2022/08/23 02:48:54;;;;;;;5.60;4.20;;;21.80;54.20;;;;;;5054553;28;20509;-42
2022/08/23 02:51:20;;;;;;;4.93;4.37;;;21.80;54.30;;;;;;5036001;28;20440;-41
2022/08/23 02:53:46;;;;;;;7.90;4.83;;;21.80;54.30;;;;;;5053662;28;20404;-42
2022/08/23 02:56:14;;;;;;;6.40;4.97;;;21.80;54.30;;;;;;5054128;28;20228;-42
2022/08/23 02:58:40;;;;;;;5.43;4.53;;;21.90;54.40;;;;;;5054350;28;20824;-43
2022/08/23 03:01:16;;;;;;;4.77;4.37;;;21.80;54.30;;;;;;5054263;28;20448;-42
2022/08/23 03:03:42;;;;;;;6.20;5.60;;;21.80;54.30;;;;;;5054117;28;20407;-41
2022/08/23 03:06:08;;;;;;;6.87;6.07;;;21.80;54.30;;;;;;5053799;28;20456;-42
2022/08/23 03:08:34;;;;;;;6.60;5.20;;;21.80;54.30;;;;;;5053677;28;20457;-43
2022/08/23 03:11:00;;;;;;;5.40;4.90;;;21.90;54.50;;;;;;5054239;28;20420;-42
2022/08/23 03:13:26;;;;;;;6.23;5.47;;;21.90;54.50;;;;;;5054266;28;20669;-42
2022/08/23 03:15:51;;;;;;;6.37;5.70;;;21.90;54.50;;;;;;5053862;28;20165;-43
2022/08/23 03:18:17;;;;;;;5.03;4.13;;;21.90;54.50;;;;;;5053914;28;20176;-42
2022/08/23 03:20:43;;;;;;;6.30;5.70;;;21.90;54.50;;;;;;5053661;28;20254;-42
2022/08/23 03:23:10;;;;;;;5.50;5.00;;;21.90;54.50;;;;;;5053712;28;20256;-40
2022/08/23 03:25:37;;;;;;;5.37;4.30;;;21.90;54.60;;;;;;5053348;28;20820;-42
2022/08/23 03:28:06;;;;;;;7.63;6.17;;;21.90;54.60;;;;;;5053528;28;20410;-43
2022/08/23 03:30:32;;;;;;;5.43;4.93;;;21.90;54.50;;;;;;5053463;28;20464;-42
2022/08/23 03:32:59;;;;;;;7.10;5.10;;;21.90;54.60;;;;;;5053605;28;20446;-42
2022/08/23 03:35:26;;;;;;;6.03;5.23;;;21.90;54.60;;;;;;5053294;28;20415;-42
2022/08/23 03:37:53;;;;;;;5.63;4.90;;;21.90;54.70;;;;;;5053268;28;20404;-42
2022/08/23 03:40:21;;;;;;;5.77;5.20;;;21.90;54.70;;;;;;5053214;28;20486;-42
2022/08/23 03:42:48;;;;;;;7.77;5.00;;;21.90;54.70;;;;;;5053216;28;21171;-42
2022/08/23 03:45:14;;;;;;;6.43;4.80;;;21.90;54.70;;;;;;5053275;28;20752;-42
2022/08/23 03:47:39;;;;;;;7.80;4.53;;;21.90;54.80;;;;;;5052965;28;20407;-41
2022/08/23 03:50:06;;;;;;;6.10;5.27;;;21.90;54.90;;;;;;5053109;28;20288;-42
2022/08/23 03:52:31;;;;;;;6.07;4.30;;;21.90;54.90;;;;;;5053381;28;20231;-41
2022/08/23 03:54:57;;;;;;;8.73;4.77;;;21.90;55.00;;;;;;5053074;28;20400;-42
2022/08/23 03:57:23;;;;;;;12.70;5.03;;;22.00;54.90;;;;;;5052786;28;20629;-42
2022/08/23 03:59:49;;;;;;;9.30;4.50;;;21.90;54.90;;;;;;5052984;28;20497;-43
2022/08/23 04:02:15;;;;;;;8.17;4.80;;;21.90;54.90;;;;;;5052735;28;20213;-42
2022/08/23 04:04:41;;;;;;;5.63;4.33;;;21.90;55.00;;;;;;5052888;28;20415;-41
2022/08/23 04:07:08;;;;;;;6.40;5.40;;;21.90;55.00;;;;;;5052473;28;20392;-41
2022/08/23 04:09:37;;;;;;;4.73;4.00;;;21.90;55.00;;;;;;5052798;28;20474;-42
2022/08/23 04:12:03;;;;;;;5.30;4.80;;;21.90;54.90;;;;;;5052855;28;20437;-42
2022/08/23 04:14:29;;;;;;;5.43;4.50;;;21.90;55.00;;;;;;5052821;28;20407;-42
2022/08/23 04:16:55;;;;;;;6.23;5.23;;;21.90;54.80;;;;;;5052341;28;20396;-42
2022/08/23 04:19:21;;;;;;;5.03;3.97;;;21.90;54.90;;;;;;5034835;28;20253;-42
2022/08/23 04:21:49;;;;;;;7.00;5.33;;;21.90;54.80;;;;;;5052465;28;20518;-43
2022/08/23 04:24:17;;;;;;;6.93;4.90;;;21.90;55.00;;;;;;5052663;28;20407;-42
2022/08/23 04:26:44;;;;;;;4.60;3.67;;;21.90;54.90;;;;;;5052578;28;20415;-42
2022/08/23 04:29:12;;;;;;;6.60;4.60;;;21.90;54.90;;;;;;5052477;28;20806;-42
2022/08/23 04:31:37;;;;;;;5.57;4.10;;;21.90;54.90;;;;;;5052264;28;20423;-42
2022/08/23 04:34:03;;;;;;;5.40;4.50;;;21.90;54.90;;;;;;5052330;28;20981;-42
2022/08/23 04:36:37;;;;;;;6.93;5.20;;;21.90;54.90;;;;;;5034370;28;20176;-41
2022/08/23 04:39:03;;;;;;;5.77;4.37;;;21.90;54.90;;;;;;5052271;28;20208;-42
2022/08/23 04:43:55;;;;;;;5.10;3.97;;;21.90;54.90;;;;;;5060717;22;20498;-40
2022/08/23 04:46:22;;;;;;;5.40;4.50;;;21.90;54.90;;;;;;5049961;28;20491;-40
2022/08/23 04:48:47;;;;;;;10.43;4.23;;;21.90;54.90;;;;;;5051934;28;20625;-40
2022/08/23 04:51:14;;;;;;;5.30;4.47;;;21.90;54.90;;;;;;5052050;28;20500;-40
2022/08/23 04:53:40;;;;;;;5.93;4.63;;;21.90;55.00;;;;;;5051913;28;20427;-41
2022/08/23 04:56:07;;;;;;;7.50;5.10;;;21.90;55.00;;;;;;5051775;28;20396;-40
2022/08/23 04:58:34;;;;;;;7.10;4.70;;;21.90;55.00;;;;;;5051877;28;20449;-40
2022/08/23 05:01:03;;;;;;;13.23;5.27;;;21.90;55.00;;;;;;5051751;28;20411;-39
2022/08/23 05:03:30;;;;;;;5.93;5.03;;;21.90;55.10;;;;;;5051726;28;20431;-40
2022/08/23 05:05:57;;;;;;;6.00;5.00;;;21.90;55.10;;;;;;5051671;28;20481;-40
2022/08/23 05:08:24;;;;;;;6.20;5.57;;;21.90;55.10;;;;;;5051851;28;20400;-40
2022/08/23 05:10:50;;;;;;;7.90;5.30;;;21.90;55.20;;;;;;5051741;28;20546;-39
2022/08/23 05:13:16;;;;;;;6.90;5.17;;;21.90;55.30;;;;;;5051760;28;20443;-40
2022/08/23 05:15:43;;;;;;;5.73;4.43;;;21.90;55.20;;;;;;5052985;28;20431;-39
2022/08/23 05:18:09;;;;;;;5.23;4.73;;;21.90;55.30;;;;;;5055896;28;20396;-40
2022/08/23 05:20:35;;;;;;;7.67;6.20;;;21.90;55.40;;;;;;5055873;28;20431;-40
2022/08/23 05:23:02;;;;;;;5.97;4.57;;;22.00;55.40;;;;;;5055935;28;20454;-40
2022/08/23 05:25:48;;;;;;;5.90;5.33;;;22.00;55.50;;;;;;5055622;28;20411;-40
2022/08/23 05:28:26;;;;;;;6.03;5.43;;;22.00;55.40;;;;;;5055859;28;20417;-39
2022/08/23 05:30:58;;;;;;;9.40;5.27;;;22.00;55.40;;;;;;5055537;28;20435;-40
2022/08/23 05:33:25;;;;;;;6.53;4.90;;;22.10;55.40;;;;;;5055717;28;20420;-40
2022/08/23 05:35:51;;;;;;;5.30;4.80;;;22.00;55.40;;;;;;5055521;28;20396;-40
2022/08/23 05:38:17;;;;;;;8.90;5.60;;;22.10;55.40;;;;;;5055376;28;20404;-40
2022/08/23 05:40:43;;;;;;;5.90;4.90;;;22.10;55.50;;;;;;5055546;28;20422;-40
2022/08/23 05:43:09;;;;;;;5.77;5.27;;;22.00;55.40;;;;;;5055156;28;21015;-40
2022/08/23 05:45:35;;;;;;;5.60;5.10;;;22.00;55.40;;;;;;5055073;28;20490;-39
2022/08/23 05:48:01;;;;;;;6.90;5.57;;;22.10;55.60;;;;;;5055673;28;20400;-41
2022/08/23 05:50:27;;;;;;;5.63;5.10;;;22.10;55.60;;;;;;5055027;28;20448;-40
2022/08/23 05:52:52;;;;;;;9.70;5.80;;;22.10;55.60;;;;;;5055113;28;20423;-40
2022/08/23 05:55:18;;;;;;;8.43;5.33;;;22.10;55.60;;;;;;5055151;28;20165;-40
2022/08/23 05:57:44;;;;;;;8.67;6.10;;;22.10;55.60;;;;;;5054881;28;20641;-40
2022/08/23 06:00:13;;;;;;;5.30;4.67;;;22.10;55.70;;;;;;5055070;28;20170;-40
2022/08/23 06:02:39;;;;;;;6.30;5.70;;;22.10;55.60;;;;;;5054803;28;20477;-40
2022/08/23 06:05:05;;;;;;;6.10;5.50;;;22.10;55.80;;;;;;5037092;28;20415;-40
2022/08/23 06:07:33;;;;;;;6.63;5.23;;;22.10;55.70;;;;;;5054950;28;20411;-40
2022/08/23 06:09:59;;;;;;;7.13;5.23;;;22.10;55.80;;;;;;5054808;28;20447;-40
2022/08/23 06:12:25;;;;;;;7.90;6.90;;;22.20;55.80;;;;;;5055036;28;20442;-40
2022/08/23 06:14:51;;;;;;;6.27;5.13;;;22.20;55.80;;;;;;5054691;28;20410;-40
2022/08/23 06:17:17;;;;;;;6.40;5.67;;;22.20;55.80;;;;;;5055046;28;20404;-41
2022/08/23 06:19:43;;;;;;;6.40;5.57;;;22.20;55.80;;;;;;5056817;28;20432;-40
2022/08/23 06:22:09;;;;;;;10.73;5.20;;;22.20;55.90;;;;;;5056679;28;20463;-40
2022/08/23 06:24:35;;;;;;;6.13;5.33;;;22.20;55.80;;;;;;5054949;28;20706;-39
2022/08/23 06:27:00;;;;;;;10.63;5.87;;;22.30;55.80;;;;;;5054353;28;20488;-40
2022/08/23 06:29:26;;;;;;;9.13;6.50;;;22.30;55.80;;;;;;5054640;28;20955;-40
2022/08/23 06:31:52;;;;;;;7.50;6.70;;;22.30;55.80;;;;;;5054493;28;20721;-40
2022/08/23 06:34:22;;;;;;;10.30;6.20;;;22.30;55.90;;;;;;5054449;28;20407;-40
2022/08/23 06:36:51;;;;;;;7.23;5.97;;;22.30;55.80;;;;;;5054423;28;20392;-40
2022/08/23 06:39:19;;;;;;;11.77;6.60;;;22.30;55.90;;;;;;5054308;28;20402;-40
2022/08/23 06:41:47;;;;;;;6.60;6.00;;;22.30;55.90;;;;;;5054137;28;21050;-40
2022/08/23 06:44:13;;;;;;;7.80;7.00;;;22.30;55.80;;;;;;5054189;28;20416;-40
2022/08/23 06:46:39;;;;;;;7.60;5.90;;;22.30;55.80;;;;;;5054340;28;20414;-40
2022/08/23 06:49:06;;;;;;;6.40;5.10;;;22.30;55.80;;;;;;5054072;28;20534;-41
2022/08/23 06:51:41;;;;;;;9.77;7.20;;;22.30;55.80;;;;;;5054053;28;20524;-40
2022/08/23 06:54:11;;;;;;;7.57;4.73;;;22.30;55.80;;;;;;5054009;28;20399;-40
2022/08/23 06:56:38;;;;;;;7.40;6.70;;;22.30;55.90;;;;;;5054016;28;20413;-40
2022/08/23 06:59:05;;;;;;;6.03;5.00;;;22.40;55.80;;;;;;5054134;28;20430;-40
2022/08/23 07:01:40;;;;;;;8.50;4.80;;;22.40;55.70;;;;;;5054032;28;20893;-40
2022/08/23 07:04:08;;;;;;;7.10;6.27;;;22.40;55.70;;;;;;5053874;28;20402;-40
2022/08/23 07:06:34;;;;;;;7.03;6.13;;;22.40;55.70;;;;;;5053648;28;20416;-40
2022/08/23 07:09:02;;;;;;;6.40;5.67;;;22.40;55.80;;;;;;5053754;28;20526;-40
2022/08/23 07:11:31;;;;;;;9.40;5.80;;;22.40;55.80;;;;;;5053730;28;20436;-40
2022/08/23 07:13:59;;;;;;;11.10;5.83;;;22.50;55.90;;;;;;5053614;28;20434;-40
2022/08/23 07:16:38;;;;;;;7.53;6.40;;;22.50;55.90;;;;;;5053508;28;20407;-39
2022/08/23 07:19:04;;;;;;;8.40;6.67;;;22.50;55.80;;;;;;5053627;28;20380;-40
2022/08/23 07:21:30;;;;;;;9.30;6.87;;;22.50;55.90;;;;;;5053567;28;20499;-40
2022/08/23 07:23:57;;;;;;;9.40;6.47;;;22.50;55.80;;;;;;5053521;28;20934;-40
2022/08/23 07:26:24;;;;;;;9.30;7.40;;;22.50;55.80;;;;;;5053837;28;20414;-40
2022/08/23 07:28:50;;;;;;;8.37;6.90;;;22.50;56.50;;;;;;5053483;28;20766;-41
2022/08/23 07:31:29;;;;;;;7.90;7.17;;;22.50;55.80;;;;;;5053553;28;20553;-40
2022/08/23 07:33:57;;;;;;;8.37;5.93;;;22.60;55.80;;;;;;5053441;28;20411;-41
2022/08/23 07:36:26;;;;;;;7.67;6.70;;;22.60;55.80;;;;;;5053364;28;20408;-40
2022/08/23 07:38:52;;;;;;;8.30;6.20;;;22.60;55.80;;;;;;5052732;28;20487;-39
2022/08/23 07:41:22;;;;;;;9.77;8.20;;;22.60;55.80;;;;;;5053339;28;20411;-40
2022/08/23 07:43:49;;;;;;;8.60;6.73;;;22.60;55.70;;;;;;5052984;28;20510;-40
2022/08/23 07:46:15;;;;;;;9.33;8.20;;;22.60;55.70;;;;;;5052796;28;20439;-40
2022/08/23 07:48:41;;;;;;;9.60;7.07;;;22.60;55.70;;;;;;5052882;28;20884;-40
2022/08/23 07:51:11;;;;;;;13.10;7.10;;;22.60;55.80;;;;;;5053193;28;20412;-39
2022/08/23 07:53:37;;;;;;;10.90;7.90;;;22.60;55.80;;;;;;5052799;28;20191;-40
2022/08/23 07:56:08;;;;;;;8.70;7.43;;;22.70;56.10;;;;;;5052618;28;20487;-40
2022/08/23 07:58:34;;;;;;;11.87;8.30;;;22.70;55.90;;;;;;5052879;28;20408;-40
2022/08/23 08:01:15;;;;;;;12.80;9.00;;;22.80;55.80;;;;;;5052816;28;20408;-40
2022/08/23 08:03:45;;;;;;;10.10;7.20;;;22.80;55.60;;;;;;5052657;28;20239;-40
2022/08/23 08:06:14;;;;;;;9.47;7.80;;;22.80;55.70;;;;;;5052730;28;20384;-40
2022/08/23 08:08:41;;;;;;;10.10;7.57;;;22.80;55.80;;;;;;5052688;28;20818;-40
2022/08/23 08:11:11;;;;;;;9.57;7.63;;;22.90;55.90;;;;;;5052515;28;20494;-40
2022/08/23 08:13:42;;;;;;;13.90;7.90;;;22.90;55.90;;;;;;5052438;28;20965;-40
2022/08/23 08:16:10;;;;;;;13.07;7.00;;;22.90;55.90;;;;;;5052328;28;20376;-40
2022/08/23 08:18:37;;;;;;;11.43;9.97;;;22.90;55.70;;;;;;5052467;28;21225;-40
2022/08/23 08:21:05;;;;;;;10.50;8.20;;;22.90;55.70;;;;;;5052434;28;20819;-40
2022/08/23 08:23:31;;;;;;;14.10;9.50;;;22.90;55.90;;;;;;5052499;28;20431;-39
2022/08/23 08:26:06;;;;;;;10.40;9.10;;;22.90;55.90;;;;;;5052102;28;20461;-40
2022/08/23 08:28:33;;;;;;;14.17;8.77;;;23.00;55.80;;;;;;5052390;28;20411;-40
2022/08/23 08:30:59;;;;;;;10.17;9.07;;;23.00;55.60;;;;;;5052106;28;20509;-40
2022/08/23 08:33:26;;;;;;;13.80;9.00;;;23.00;55.60;;;;;;5052220;28;20424;-40
2022/08/23 08:35:52;;;;;;;11.23;8.83;;;23.00;55.40;;;;;;5052062;28;20404;-40
2022/08/23 08:38:18;;;;;;;9.87;8.30;;;23.00;55.40;;;;;;5052159;28;20891;-40
2022/08/23 08:40:47;;;;;;;11.53;10.20;;;23.10;55.40;;;;;;5052280;28;20411;-40
2022/08/23 08:43:33;;;;;;;9.47;8.40;;;23.10;55.50;;;;;;5051927;28;20454;-40
2022/08/23 08:46:36;;;;;;;10.40;9.20;;;23.10;55.40;;;;;;5051888;28;20438;-40
2022/08/23 08:49:03;;;;;;;12.90;9.60;;;23.10;55.50;;;;;;5007753;28;20463;-40
2022/08/23 08:51:48;;;;;;;11.97;9.27;;;23.20;55.50;;;;;;5051366;28;20403;-40
2022/08/23 08:54:18;;;;;;;13.93;8.70;;;23.30;55.60;;;;;;5052022;28;20475;-40
2022/08/23 08:56:50;;;;;;;14.47;12.00;;;23.40;55.70;;;;;;5051991;28;20407;-40
2022/08/23 08:59:44;;;;;;;11.87;9.50;;;23.40;55.60;;;;;;5052097;28;20407;-40
2022/08/23 09:02:17;;;;;;;16.40;10.17;;;23.40;55.40;;;;;;5051830;28;20445;-40
2022/08/23 09:04:44;;;;;;;10.23;8.77;;;23.50;55.50;;;;;;5051856;28;20392;-41
2022/08/23 09:07:44;;;;;;;10.10;8.93;;;23.50;55.60;;;;;;5051668;28;20415;-41
2022/08/23 09:10:20;;;;;;;15.30;9.43;;;23.60;55.70;;;;;;5051690;28;20454;-40
2022/08/23 09:13:15;;;;;;;11.50;9.90;;;23.60;55.50;;;;;;5051781;28;20502;-41
2022/08/23 09:16:07;;;;;;;14.70;10.83;;;23.70;55.30;;;;;;5051555;28;20432;-44
2022/08/23 09:18:35;;;;;;;13.63;10.13;;;23.70;54.60;;;;;;5051776;28;20408;-41
2022/08/23 09:21:05;;;;;;;12.13;10.50;;;23.70;54.80;;;;;;5051933;28;20404;-41
2022/08/23 09:23:42;;;;;;;11.47;8.93;;;23.70;54.90;;;;;;5051684;28;20424;-41
2022/08/23 09:26:28;;;;;;;15.00;11.03;;;23.70;54.70;;;;;;5051501;28;20895;-41
2022/08/23 09:29:24;;;;;;;12.23;10.17;;;23.80;54.80;;;;;;5051697;28;20461;-41
2022/08/23 09:31:57;;;;;;;9.80;8.80;;;23.90;54.90;;;;;;5050783;28;20919;-41
2022/08/23 09:34:33;;;;;;;11.30;9.70;;;23.90;54.80;;;;;;5051727;28;20400;-41
2022/08/23 09:37:08;;;;;;;10.77;9.10;;;23.90;54.50;;;;;;5051443;28;20402;-40
2022/08/23 09:39:43;;;;;;;10.97;9.17;;;24.00;54.30;;;;;;5051700;28;20407;-40
2022/08/23 09:42:31;;;;;;;13.47;9.53;;;23.90;54.20;;;;;;5051451;28;20522;-40
2022/08/23 09:44:57;;;;;;;10.57;8.57;;;24.00;54.50;;;;;;5051488;28;20408;-41
2022/08/23 09:47:39;;;;;;;9.17;7.90;;;24.00;54.60;;;;;;5051225;28;20953;-40
2022/08/23 09:50:26;;;;;;;9.93;8.87;;;24.10;54.60;;;;;;5051226;28;20455;-41
2022/08/23 09:53:07;;;;;;;10.00;8.93;;;24.10;54.70;;;;;;5051296;28;20427;-40
2022/08/23 09:55:47;;;;;;;7.63;6.83;;;24.20;54.60;;;;;;5051237;28;20396;-41
2022/08/23 09:58:36;;;;;;;10.53;7.73;;;24.20;54.50;;;;;;5051366;28;20403;-41
2022/08/23 10:01:19;;;;;;;11.47;7.30;;;24.30;54.30;;;;;;5051861;28;20404;-41
2022/08/23 10:03:46;;;;;;;9.07;8.17;;;24.30;54.10;;;;;;5055005;28;20422;-40
2022/08/23 10:06:27;;;;;;;8.30;7.00;;;24.30;54.20;;;;;;5055238;28;20435;-40
2022/08/23 10:08:57;;;;;;;8.13;7.37;;;24.30;54.20;;;;;;5054711;28;20403;-41
2022/08/23 10:11:27;;;;;;;10.83;6.83;;;24.30;54.00;;;;;;5055297;28;20898;-40
2022/08/23 10:13:53;;;;;;;7.57;6.10;;;24.30;53.90;;;;;;5054848;28;20550;-40
2022/08/23 10:17:00;;;;;;;7.17;6.57;;;24.30;53.80;;;;;;5054777;28;20486;-41
2022/08/23 10:19:45;;;;;;;7.20;6.50;;;24.30;53.40;;;;;;5010377;28;20443;-41
2022/08/23 10:22:19;;;;;;;9.63;6.83;;;24.20;53.20;;;;;;5054588;28;20458;-41
2022/08/23 10:25:02;;;;;;;11.10;6.80;;;24.30;53.60;;;;;;5054579;28;20399;-41
2022/08/23 10:30:46;;;;;;;8.13;7.33;;;24.40;54.00;;;;;;5054529;28;20462;-41
2022/08/23 10:33:30;;;;;;;7.13;6.37;;;24.40;54.00;;;;;;5054499;28;20454;-41
2022/08/23 10:36:14;;;;;;;7.50;5.63;;;24.50;54.10;;;;;;5054184;28;20380;-40
2022/08/23 10:38:43;;;;;;;6.83;6.03;;;24.50;54.10;;;;;;5054382;28;20415;-41
2022/08/23 10:41:21;;;;;;;6.07;5.43;;;23.60;53.30;;;;;;5054305;28;20419;-41
2022/08/23 10:44:02;;;;;;;6.70;6.00;;;24.50;53.80;;;;;;5054296;28;20447;-40
2022/08/23 10:46:36;;;;;;;5.00;4.50;;;24.50;53.80;;;;;;5053930;28;20940;-40
2022/08/23 10:49:03;;;;;;;5.67;4.60;;;24.50;53.60;;;;;;5067400;22;20513;-43
2022/08/23 10:51:36;;;;;;;6.33;5.57;;;24.50;53.70;;;;;;5017111;28;20413;-43
2022/08/23 10:54:15;;;;;;;5.90;5.10;;;24.60;53.80;;;;;;5034426;28;20405;-44
2022/08/23 10:56:41;;;;;;;8.83;6.33;;;24.50;53.80;;;;;;5034029;28;20408;-43
2022/08/23 10:59:19;;;;;;;5.80;4.43;;;24.50;53.50;;;;;;5033934;28;20488;-43
2022/08/23 11:02:11;;;;;;;6.87;6.17;;;24.60;53.40;;;;;;5033919;28;20409;-42
2022/08/23 11:04:55;;;;;;;5.90;5.20;;;24.60;53.10;;;;;;5034196;28;20427;-42
2022/08/23 11:07:41;;;;;;;6.63;5.20;;;24.50;53.10;;;;;;5033786;28;20421;-42
2022/08/23 11:10:51;;;;;;;5.23;4.70;;;24.50;53.10;;;;;;5033601;28;20452;-43
2022/08/23 11:13:20;;;;;;;5.20;4.77;;;24.50;53.10;;;;;;5012407;28;20439;-42
2022/08/23 11:15:57;;;;;;;6.07;5.03;;;24.50;53.20;;;;;;5033878;28;20406;-42
2022/08/23 11:18:44;;;;;;;5.40;4.90;;;24.50;53.00;;;;;;5033740;28;20899;-43
2022/08/23 11:21:44;;;;;;;5.33;4.83;;;24.40;53.00;;;;;;5033688;28;20424;-42
2022/08/23 11:24:11;;;;;;;5.70;4.67;;;24.40;52.80;;;;;;5033683;28;20455;-42
2022/08/23 11:26:38;;;;;;;5.43;4.90;;;24.40;52.90;;;;;;5033300;28;20405;-42
2022/08/23 11:29:09;;;;;;;5.30;4.37;;;24.40;53.00;;;;;;5033547;28;20441;-41
2022/08/23 11:31:39;;;;;;;7.27;5.57;;;24.40;53.00;;;;;;5033645;28;20927;-42
2022/08/23 11:34:21;;;;;;;5.50;4.67;;;24.40;52.90;;;;;;5033441;28;20802;-42
2022/08/23 11:37:20;;;;;;;5.50;5.00;;;24.40;52.80;;;;;;5033473;28;20424;-42
2022/08/23 11:39:56;;;;;;;8.73;6.00;;;24.40;52.80;;;;;;4999824;28;20896;-42
2022/08/23 11:42:43;;;;;;;7.10;5.60;;;24.50;53.10;;;;;;5033132;28;20444;-42
2022/08/23 11:45:39;;;;;;;6.07;5.07;;;24.50;53.00;;;;;;5033260;28;20397;-43
2022/08/23 11:48:34;;;;;;;6.30;5.70;;;24.50;53.10;;;;;;5033101;28;20444;-42
2022/08/23 11:51:18;;;;;;;7.27;6.57;;;24.50;53.30;;;;;;5032995;28;20468;-42
2022/08/23 11:53:59;;;;;;;5.87;4.87;;;24.60;53.30;;;;;;5032950;28;20417;-42
2022/08/23 11:56:54;;;;;;;5.93;4.80;;;24.60;52.90;;;;;;5032892;28;20385;-43
2022/08/23 11:59:37;;;;;;;6.67;5.57;;;24.70;52.70;;;;;;5033193;28;20516;-42
2022/08/23 12:02:32;;;;;;;6.67;5.70;;;24.70;52.70;;;;;;5032923;28;20405;-41
2022/08/23 12:05:01;;;;;;;6.20;5.60;;;24.70;52.20;;;;;;5032933;28;20417;-43
2022/08/23 12:07:52;;;;;;;10.30;5.93;;;24.70;52.40;;;;;;5032693;28;20784;-42
2022/08/23 12:10:41;;;;;;;6.70;5.30;;;24.70;52.10;;;;;;5033024;28;20532;-42
2022/08/23 12:13:19;;;;;;;8.87;6.53;;;24.70;52.00;;;;;;5019989;28;20420;-42
2022/08/23 12:16:03;;;;;;;5.77;5.10;;;24.70;51.90;;;;;;5032532;28;20409;-42
2022/08/23 12:18:32;;;;;;;6.27;5.27;;;24.70;51.90;;;;;;5032481;28;20515;-43
2022/08/23 12:21:00;;;;;;;5.43;4.93;;;24.70;51.90;;;;;;5032551;28;20471;-42
2022/08/23 12:23:27;;;;;;;8.63;4.50;;;24.60;51.80;;;;;;5032800;28;20408;-42
2022/08/23 12:26:10;;;;;;;5.30;4.50;;;24.60;51.90;;;;;;5032132;28;20433;-42
2022/08/23 12:28:43;;;;;;;6.30;5.03;;;24.60;51.80;;;;;;5032527;28;20420;-42
2022/08/23 12:31:15;;;;;;;6.80;5.60;;;24.60;51.80;;;;;;5032409;28;20468;-42
2022/08/23 12:33:53;;;;;;;5.70;4.70;;;24.60;51.80;;;;;;5032573;28;20404;-42
2022/08/23 12:36:36;;;;;;;5.77;4.37;;;24.70;51.90;;;;;;5032249;28;20408;-42
2022/08/23 12:39:28;;;;;;;5.60;4.00;;;24.70;51.90;;;;;;5032243;28;20424;-43
2022/08/23 12:42:05;;;;;;;4.60;4.20;;;24.70;51.90;;;;;;5021606;28;20818;-43
2022/08/23 12:44:30;;;;;;;5.47;4.83;;;24.70;51.90;;;;;;5032560;28;20462;-42
2022/08/23 12:47:10;;;;;;;4.80;4.03;;;24.70;52.00;;;;;;5032198;28;20408;-43
2022/08/23 12:49:36;;;;;;;5.40;4.13;;;24.80;51.90;;;;;;5032401;28;20276;-42
2022/08/23 12:52:09;;;;;;;6.87;5.27;;;24.80;51.70;;;;;;5032107;28;20844;-42
2022/08/23 12:54:43;;;;;;;4.97;4.33;;;24.80;51.70;;;;;;5032499;28;20409;-42
2022/08/23 12:57:16;;;;;;;6.10;4.93;;;24.80;51.60;;;;;;5032067;28;20799;-42
2022/08/23 12:59:57;;;;;;;8.63;4.90;;;24.80;51.70;;;;;;5032339;28;20492;-43
2022/08/23 13:02:30;;;;;;;5.53;4.77;;;24.80;51.90;;;;;;5032161;28;20941;-41
2022/08/23 13:05:04;;;;;;;5.07;4.30;;;24.80;51.90;;;;;;5032288;28;20472;-42
2022/08/23 13:07:31;;;;;;;4.70;4.07;;;24.80;51.80;;;;;;5032142;28;20429;-42
2022/08/23 13:09:57;;;;;;;5.83;4.80;;;24.80;51.70;;;;;;5031939;28;20451;-43
2022/08/23 13:12:24;;;;;;;7.67;4.50;;;24.80;51.60;;;;;;5031993;28;20453;-43
2022/08/23 13:14:52;;;;;;;6.47;4.67;;;24.80;51.50;;;;;;5031878;28;20922;-43
2022/08/23 13:17:18;;;;;;;6.77;4.90;;;24.80;51.60;;;;;;5031607;28;20431;-43